Terminal Aerodrome Forecast
Issued by NWS

Home | Current Version | Previous Version | Text Only | Print | Product List | Glossary On
Versions: 1 2 3 4 5 6 7 8 9 10 11 12 13 14 15 16 17 18 19 20 21 22 23 24 25 26 27 28 29 30 31 32 33 34 35 36 37
000
FTUS46 KLOX 301202 AAA
TAFLAX
TAF AMD
KLAX 301202Z 3012/3118 25005KT P6SM BKN012 BKN020
      TEMPO 3012/3015 SCT012 SCT020
     FM301800 27008KT P6SM BKN022
     FM302000 26012KT P6SM SCT025
     FM310500 26007KT P6SM BKN015
     FM310800 VRB03KT P6SM OVC015
     FM311730 27007KT P6SM SCT025=

USA.gov is the U.S. government's official web portal to all federal, state and local government web resources and services.